createdAt,value
2022-10-31T00:01:23.869Z,61.26
2022-10-31T00:03:51.608Z,61.15
2022-10-31T00:06:19.510Z,61.16
2022-10-31T00:08:47.398Z,61.02
2022-10-31T00:11:15.348Z,60.90
2022-10-31T00:13:44.504Z,60.89
2022-10-31T00:16:16.600Z,60.67
2022-10-31T00:18:44.693Z,60.78
2022-10-31T00:21:12.509Z,60.87
2022-10-31T00:23:40.258Z,60.20
2022-10-31T00:26:08.178Z,60.21
2022-10-31T00:28:35.978Z,60.21
2022-10-31T00:31:06.792Z,59.90
2022-10-31T00:33:35.923Z,59.87
2022-10-31T00:36:03.711Z,59.99
2022-10-31T00:38:31.443Z,60.28
2022-10-31T00:40:59.248Z,61.32
2022-10-31T00:43:27.042Z,60.84
2022-10-31T00:45:54.794Z,60.37
2022-10-31T00:48:27.175Z,60.52
2022-10-31T00:50:55.062Z,60.17
2022-10-31T00:53:24.351Z,60.34
2022-10-31T00:55:52.148Z,60.44
2022-10-31T00:58:20.548Z,60.12
2022-10-31T01:00:55.699Z,60.27
2022-10-31T01:03:24.900Z,60.56
2022-10-31T01:06:01.436Z,60.80
2022-10-31T01:08:29.636Z,61.50
2022-10-31T01:11:06.330Z,60.89
2022-10-31T01:13:34.702Z,61.04
2022-10-31T01:16:04.400Z,60.78
2022-10-31T01:18:34.109Z,61.32
2022-10-31T01:21:06.538Z,61.44
2022-10-31T01:23:34.636Z,61.29
2022-10-31T01:26:04.912Z,60.92
2022-10-31T01:28:34.113Z,61.28
2022-10-31T01:31:07.210Z,60.89
2022-10-31T01:33:36.479Z,61.43
2022-10-31T01:36:13.824Z,61.90
2022-10-31T01:38:41.818Z,61.50
2022-10-31T01:41:11.260Z,61.62
2022-10-31T01:43:48.159Z,61.91
2022-10-31T01:46:16.372Z,62.21
2022-10-31T01:48:44.143Z,64.86
2022-10-31T01:51:14.972Z,64.17
2022-10-31T01:53:43.364Z,62.63
2022-10-31T01:56:11.360Z,62.87
2022-10-31T01:58:39.315Z,63.61
2022-10-31T02:01:08.260Z,63.71
2022-10-31T02:03:37.092Z,63.33
2022-10-31T02:06:05.727Z,62.56
2022-10-31T02:08:36.363Z,61.61
2022-10-31T02:11:04.305Z,61.91
2022-10-31T02:13:32.242Z,62.22
2022-10-31T02:16:01.087Z,62.13
2022-10-31T02:18:31.091Z,62.54
2022-10-31T02:21:06.457Z,62.71
2022-10-31T02:23:50.510Z,63.22
2022-10-31T02:26:44.664Z,63.12
2022-10-31T02:29:27.915Z,64.12
2022-10-31T02:32:02.140Z,65.30
2022-10-31T02:34:34.739Z,64.80
2022-10-31T02:37:09.060Z,64.86
2022-10-31T02:39:40.686Z,64.84
2022-10-31T02:42:14.222Z,65.05
2022-10-31T02:44:46.876Z,65.21
2022-10-31T02:47:18.294Z,66.16
2022-10-31T02:49:49.851Z,66.38
2022-10-31T02:52:22.372Z,66.07
2022-10-31T02:54:50.483Z,65.67
2022-10-31T02:57:20.916Z,66.87
2022-10-31T02:59:50.554Z,66.80
2022-10-31T03:02:30.848Z,67.13
2022-10-31T03:05:07.666Z,66.92
2022-10-31T03:07:41.942Z,67.65
2022-10-31T03:10:15.732Z,67.13
2022-10-31T03:12:50.137Z,67.29
2022-10-31T03:15:23.332Z,68.30
2022-10-31T03:17:58.864Z,68.62
2022-10-31T03:20:32.078Z,68.82
2022-10-31T03:23:00.671Z,68.33
2022-10-31T03:25:29.074Z,68.61
2022-10-31T03:28:00.458Z,67.64
2022-10-31T03:30:30.029Z,67.13
2022-10-31T03:33:01.641Z,68.01
2022-10-31T03:35:31.708Z,67.93
2022-10-31T03:38:05.487Z,67.76
2022-10-31T03:40:36.865Z,67.26
2022-10-31T03:43:09.834Z,67.15
2022-10-31T03:45:41.153Z,66.84
2022-10-31T03:48:10.342Z,67.19
2022-10-31T03:50:41.279Z,67.01
2022-10-31T03:53:12.496Z,66.58
2022-10-31T03:55:42.934Z,66.64
2022-10-31T03:58:14.451Z,66.81
2022-10-31T04:00:46.125Z,67.27
2022-10-31T04:03:18.022Z,67.75
2022-10-31T04:05:49.478Z,67.75
2022-10-31T04:08:19.709Z,67.82
2022-10-31T04:10:49.929Z,67.61
2022-10-31T04:13:21.948Z,68.24
2022-10-31T04:15:58.148Z,68.94
2022-10-31T04:18:28.884Z,69.50
2022-10-31T04:21:02.873Z,68.94
2022-10-31T04:23:30.957Z,69.04
2022-10-31T04:25:59.854Z,68.47
2022-10-31T04:28:27.901Z,68.66
2022-10-31T04:30:55.977Z,68.23
2022-10-31T04:33:24.284Z,68.43
2022-10-31T04:35:53.498Z,68.89
2022-10-31T04:38:21.600Z,68.38
2022-10-31T04:40:50.964Z,68.79
2022-10-31T04:43:37.265Z,68.89
2022-10-31T04:46:05.342Z,68.98
2022-10-31T04:48:33.584Z,69.04
2022-10-31T04:51:06.243Z,69.36
2022-10-31T04:53:34.466Z,69.57
2022-10-31T04:56:25.310Z,69.29
2022-10-31T04:58:58.324Z,69.34
2022-10-31T05:01:29.043Z,69.18
2022-10-31T05:03:58.190Z,68.59
2022-10-31T05:06:27.581Z,68.34
2022-10-31T05:08:55.459Z,68.04
2022-10-31T05:11:23.335Z,69.39
2022-10-31T05:13:51.214Z,69.57
2022-10-31T05:16:41.710Z,69.57
2022-10-31T05:19:28.214Z,69.50
2022-10-31T05:22:35.674Z,69.49
2022-10-31T05:25:03.571Z,69.59
2022-10-31T05:27:32.284Z,68.97
2022-10-31T05:32:39.302Z,68.94
2022-10-31T05:35:34.226Z,69.33
2022-10-31T05:38:25.264Z,70.66
2022-10-31T05:40:58.523Z,70.94
2022-10-31T05:43:26.978Z,71.21
2022-10-31T05:45:55.485Z,70.08
2022-10-31T05:48:43.637Z,70.38
2022-10-31T05:51:29.927Z,70.44
2022-10-31T05:53:59.639Z,70.10
2022-10-31T05:56:28.245Z,69.95
2022-10-31T05:58:56.304Z,69.88
2022-10-31T06:01:24.307Z,70.36
2022-10-31T06:03:52.141Z,69.66
2022-10-31T06:06:21.639Z,69.71
2022-10-31T06:08:49.485Z,70.44
2022-10-31T06:11:22.811Z,70.69
2022-10-31T06:14:02.736Z,70.81
2022-10-31T06:16:40.651Z,70.14
2022-10-31T06:19:28.475Z,69.71
2022-10-31T06:21:56.303Z,70.47
2022-10-31T06:24:24.317Z,70.32
2022-10-31T06:26:56.181Z,70.18
2022-10-31T06:29:24.453Z,69.46
2022-10-31T06:32:05.522Z,69.38
2022-10-31T06:34:38.767Z,70.44
2022-10-31T06:37:07.793Z,70.12
2022-10-31T06:39:36.355Z,69.32
2022-10-31T06:42:06.115Z,69.46
2022-10-31T06:44:34.799Z,68.89
2022-10-31T06:47:21.197Z,69.01
2022-10-31T06:50:10.482Z,68.72
2022-10-31T06:52:38.530Z,68.41
2022-10-31T06:55:07.089Z,68.48
2022-10-31T06:57:36.834Z,68.03
2022-10-31T07:00:05.228Z,67.96
2022-10-31T07:02:57.379Z,67.68
2022-10-31T07:05:25.626Z,67.64
2022-10-31T07:07:57.560Z,67.80
2022-10-31T07:10:27.770Z,67.70
2022-10-31T07:13:04.741Z,67.05
2022-10-31T07:15:36.762Z,67.05
2022-10-31T07:18:05.814Z,66.69
2022-10-31T07:20:35.468Z,66.45
2022-10-31T07:23:04.877Z,66.41
2022-10-31T07:25:34.025Z,66.41
2022-10-31T07:28:10.551Z,65.74
2022-10-31T07:30:38.928Z,65.70
2022-10-31T07:33:07.309Z,65.36
2022-10-31T07:35:53.784Z,64.38
2022-10-31T07:38:24.728Z,64.14
2022-10-31T07:40:53.950Z,63.88
2022-10-31T07:43:23.680Z,63.61
2022-10-31T07:46:10.019Z,63.32
2022-10-31T07:48:56.336Z,63.60
2022-10-31T07:51:59.659Z,63.42
2022-10-31T07:54:46.495Z,63.44
2022-10-31T07:57:15.866Z,63.66
2022-10-31T07:59:46.225Z,63.69
2022-10-31T08:02:14.089Z,64.00
2022-10-31T08:04:51.118Z,63.98
2022-10-31T08:07:31.370Z,63.18
2022-10-31T08:10:06.173Z,62.97
2022-10-31T08:12:35.626Z,62.41
2022-10-31T08:15:07.896Z,62.13
2022-10-31T08:17:37.255Z,61.36
2022-10-31T08:20:05.630Z,61.17
2022-10-31T08:22:41.209Z,60.70
2022-10-31T08:25:12.309Z,60.48
2022-10-31T08:27:40.735Z,60.36
2022-10-31T08:30:17.667Z,59.92
2022-10-31T08:33:02.972Z,59.62
2022-10-31T08:35:50.998Z,59.77
2022-10-31T08:38:38.855Z,58.69
2022-10-31T08:41:10.215Z,57.43
2022-10-31T08:43:38.389Z,57.34
2022-10-31T08:46:08.412Z,56.41
2022-10-31T08:48:36.881Z,56.54
2022-10-31T08:51:05.778Z,56.31
2022-10-31T08:53:34.169Z,56.35
2022-10-31T08:56:31.294Z,56.09
2022-10-31T08:59:01.118Z,54.85
2022-10-31T09:01:56.433Z,54.67
2022-10-31T09:04:25.061Z,54.39
2022-10-31T09:09:40.731Z,55.63
2022-10-31T09:12:08.871Z,55.23
2022-10-31T09:14:55.224Z,54.52
2022-10-31T09:17:30.123Z,53.91
2022-10-31T09:20:18.391Z,53.55
2022-10-31T09:22:46.319Z,53.15
2022-10-31T09:25:14.695Z,53.39
2022-10-31T09:27:46.200Z,53.49
2022-10-31T09:30:14.662Z,53.75
2022-10-31T09:32:46.723Z,53.66
2022-10-31T09:35:15.867Z,53.42
2022-10-31T09:37:45.412Z,53.95
2022-10-31T09:40:13.315Z,53.42
2022-10-31T09:42:56.876Z,52.78
2022-10-31T09:45:31.644Z,52.87
2022-10-31T09:48:22.763Z,52.69
2022-10-31T09:50:59.854Z,51.90
2022-10-31T09:53:50.097Z,51.47
2022-10-31T09:56:23.327Z,51.92
2022-10-31T09:58:54.880Z,51.70
2022-10-31T10:01:33.556Z,50.60
2022-10-31T10:04:06.909Z,49.94
2022-10-31T10:07:01.291Z,49.56
2022-10-31T10:09:55.266Z,49.41
2022-10-31T10:13:02.178Z,49.23
2022-10-31T10:15:49.920Z,48.62
2022-10-31T10:18:28.092Z,49.15
2022-10-31T10:21:06.095Z,49.71
2022-10-31T10:23:42.089Z,49.48
2022-10-31T10:26:17.437Z,48.74
2022-10-31T10:28:47.818Z,48.57
2022-10-31T10:31:17.262Z,47.90
2022-10-31T10:33:49.970Z,47.33
2022-10-31T10:36:23.781Z,47.20
2022-10-31T10:38:53.508Z,46.66
2022-10-31T10:41:24.269Z,46.66
2022-10-31T10:43:52.840Z,45.98
2022-10-31T10:46:41.064Z,45.64
2022-10-31T10:49:18.726Z,45.28
2022-10-31T10:52:07.598Z,45.04
2022-10-31T10:54:45.113Z,45.33
2022-10-31T10:57:24.561Z,46.19
2022-10-31T10:59:53.177Z,45.98
2022-10-31T11:02:22.557Z,46.30
2022-10-31T11:04:53.134Z,46.43
2022-10-31T11:07:22.785Z,46.27
2022-10-31T11:09:50.771Z,44.94
2022-10-31T11:12:22.884Z,44.08
2022-10-31T11:14:53.507Z,43.33
2022-10-31T11:17:30.381Z,43.15
2022-10-31T11:20:06.893Z,42.85
2022-10-31T11:22:36.167Z,42.83
2022-10-31T11:25:22.515Z,41.70
2022-10-31T11:28:00.309Z,41.40
2022-10-31T11:30:28.290Z,38.11
2022-10-31T11:32:56.360Z,37.32
2022-10-31T11:35:25.552Z,38.16
2022-10-31T11:37:56.080Z,37.26
2022-10-31T11:40:27.225Z,36.53
2022-10-31T11:42:58.496Z,36.07
2022-10-31T11:45:35.030Z,37.35
2022-10-31T11:48:04.399Z,37.52
2022-10-31T11:50:37.618Z,38.31
2022-10-31T11:53:15.171Z,38.43
2022-10-31T11:55:43.156Z,37.95
2022-10-31T11:58:23.339Z,37.42
2022-10-31T12:00:52.620Z,38.51
2022-10-31T12:03:30.372Z,39.23
2022-10-31T12:06:01.083Z,39.96
2022-10-31T12:08:32.238Z,40.66
2022-10-31T12:11:05.862Z,40.77
2022-10-31T12:13:36.296Z,40.25
2022-10-31T12:16:10.459Z,41.35
2022-10-31T12:18:45.708Z,41.68
2022-10-31T12:21:26.338Z,41.50
2022-10-31T12:24:03.957Z,41.78
2022-10-31T12:26:36.038Z,41.85
2022-10-31T12:29:20.037Z,42.25
2022-10-31T12:31:56.288Z,41.87
2022-10-31T12:34:49.821Z,41.74
2022-10-31T12:37:26.475Z,41.46
2022-10-31T12:40:06.047Z,41.00
2022-10-31T12:42:46.177Z,40.54
2022-10-31T12:45:45.355Z,40.15
2022-10-31T12:48:23.532Z,38.36
2022-10-31T12:51:00.724Z,37.55
2022-10-31T12:53:37.523Z,38.30
2022-10-31T12:56:18.362Z,38.69
2022-10-31T12:58:49.430Z,39.03
2022-10-31T13:01:19.242Z,39.21
2022-10-31T13:03:50.705Z,39.06
2022-10-31T13:06:21.588Z,38.80
2022-10-31T13:08:52.297Z,39.14
2022-10-31T13:11:24.673Z,39.31
2022-10-31T13:13:58.466Z,38.62
2022-10-31T13:16:30.337Z,37.14
2022-10-31T13:19:00.321Z,36.85
2022-10-31T13:21:33.238Z,36.55
2022-10-31T13:24:02.858Z,36.77
2022-10-31T13:26:39.374Z,37.65
2022-10-31T13:29:15.400Z,38.39
2022-10-31T13:31:43.763Z,37.95
2022-10-31T13:34:20.517Z,38.26
2022-10-31T13:36:55.774Z,38.70
2022-10-31T13:39:32.689Z,38.39
2022-10-31T13:42:05.387Z,38.95
2022-10-31T13:44:38.728Z,38.91
2022-10-31T13:47:23.809Z,39.51
2022-10-31T13:49:51.807Z,40.25
2022-10-31T13:52:25.953Z,40.19
2022-10-31T13:54:57.671Z,40.64
2022-10-31T13:57:34.734Z,40.43
2022-10-31T14:00:05.800Z,41.24
2022-10-31T14:02:47.576Z,41.07
2022-10-31T14:05:24.743Z,40.99
2022-10-31T14:07:53.852Z,41.22
2022-10-31T14:10:27.003Z,41.09
2022-10-31T14:13:05.782Z,40.64
2022-10-31T14:15:33.933Z,39.72
2022-10-31T14:18:03.955Z,39.80
2022-10-31T14:20:42.266Z,40.53
2022-10-31T14:23:15.448Z,40.12
2022-10-31T14:25:43.364Z,40.62
2022-10-31T14:28:23.332Z,39.77
2022-10-31T14:30:55.060Z,38.07
2022-10-31T14:33:24.544Z,36.04
2022-10-31T14:35:57.669Z,34.96
2022-10-31T14:38:50.377Z,34.08
2022-10-31T14:41:35.377Z,35.36
2022-10-31T14:44:29.745Z,37.66
2022-10-31T14:47:01.287Z,37.97
2022-10-31T14:49:40.435Z,39.21
2022-10-31T14:52:09.650Z,40.20
2022-10-31T14:54:40.398Z,40.58
2022-10-31T14:57:10.450Z,40.92
2022-10-31T14:59:40.298Z,40.42
2022-10-31T15:02:14.401Z,40.61
2022-10-31T15:04:42.871Z,41.15
2022-10-31T15:07:13.827Z,41.61
2022-10-31T15:09:44.413Z,41.63
2022-10-31T15:12:27.158Z,42.32
2022-10-31T15:14:59.433Z,42.28
2022-10-31T15:17:27.928Z,42.36
2022-10-31T15:19:57.512Z,42.95
2022-10-31T15:22:26.237Z,42.64
2022-10-31T15:24:57.196Z,43.14
2022-10-31T15:27:26.350Z,43.29
2022-10-31T15:29:55.485Z,44.00
2022-10-31T15:32:26.330Z,44.80
2022-10-31T15:34:55.503Z,44.87
2022-10-31T15:37:25.936Z,44.96
2022-10-31T15:39:53.964Z,45.27
2022-10-31T15:42:24.375Z,45.81
2022-10-31T15:44:55.168Z,46.23
2022-10-31T15:47:25.799Z,46.47
2022-10-31T15:49:55.473Z,47.20
2022-10-31T15:52:30.130Z,47.57
2022-10-31T15:55:00.470Z,47.65
2022-10-31T15:57:28.502Z,48.17
2022-10-31T15:59:56.681Z,48.60
2022-10-31T16:02:27.582Z,48.81
2022-10-31T16:04:57.833Z,49.26
2022-10-31T16:07:26.434Z,49.32
2022-10-31T16:09:56.820Z,49.73
2022-10-31T16:12:26.239Z,50.78
2022-10-31T16:14:55.804Z,50.62
2022-10-31T16:17:26.838Z,50.65
2022-10-31T16:19:57.730Z,50.96
2022-10-31T16:22:28.292Z,51.09
2022-10-31T16:25:00.006Z,51.12
2022-10-31T16:27:29.931Z,51.47
2022-10-31T16:30:02.293Z,51.87
2022-10-31T16:32:34.134Z,51.52
2022-10-31T16:35:04.175Z,51.23
2022-10-31T16:37:31.991Z,50.83
2022-10-31T16:39:59.809Z,50.69
2022-10-31T16:42:28.917Z,50.71
2022-10-31T16:44:56.918Z,50.50
2022-10-31T16:47:27.679Z,50.31
2022-10-31T16:50:00.871Z,50.21
2022-10-31T16:52:37.998Z,49.97
2022-10-31T16:55:14.063Z,49.17
2022-10-31T16:57:44.078Z,48.69
2022-10-31T17:00:16.067Z,48.12
2022-10-31T17:02:44.778Z,48.08
2022-10-31T17:05:19.161Z,47.75
2022-10-31T17:07:47.612Z,47.34
2022-10-31T17:10:16.088Z,47.46
2022-10-31T17:12:45.581Z,46.88
2022-10-31T17:15:18.165Z,46.64
2022-10-31T17:17:46.185Z,46.51
2022-10-31T17:20:21.856Z,46.52
2022-10-31T17:22:50.175Z,46.57
2022-10-31T17:25:19.833Z,46.15
2022-10-31T17:27:47.870Z,45.69
2022-10-31T17:30:18.509Z,45.84
2022-10-31T17:32:47.388Z,45.24
2022-10-31T17:35:16.162Z,45.34
2022-10-31T17:37:46.295Z,44.97
2022-10-31T17:40:15.245Z,44.73
2022-10-31T17:42:43.148Z,44.38
2022-10-31T17:45:13.299Z,44.50
2022-10-31T17:47:41.147Z,44.73
2022-10-31T17:50:10.044Z,45.15
2022-10-31T17:52:37.974Z,44.76
2022-10-31T17:55:07.694Z,44.61
2022-10-31T17:57:36.093Z,44.74
2022-10-31T18:00:06.609Z,44.83
2022-10-31T18:02:34.648Z,44.66
2022-10-31T18:05:03.281Z,44.58
2022-10-31T18:07:31.109Z,44.78
2022-10-31T18:09:58.915Z,44.10
2022-10-31T18:12:28.952Z,44.34
2022-10-31T18:14:56.837Z,44.03
2022-10-31T18:17:25.491Z,44.26
2022-10-31T18:19:53.322Z,44.38
2022-10-31T18:22:21.129Z,44.00
2022-10-31T18:24:49.068Z,43.45
2022-10-31T18:27:16.979Z,43.40
2022-10-31T18:29:46.360Z,43.32
2022-10-31T18:32:14.487Z,43.51
2022-10-31T18:34:42.291Z,43.94
2022-10-31T18:37:10.227Z,43.38
2022-10-31T18:39:38.156Z,43.44
2022-10-31T18:42:06.229Z,43.87
2022-10-31T18:44:34.656Z,43.49
2022-10-31T18:47:03.980Z,43.69
2022-10-31T18:49:32.801Z,44.43
2022-10-31T18:52:00.790Z,44.76
2022-10-31T18:54:28.692Z,44.67
2022-10-31T18:56:56.607Z,45.11
2022-10-31T18:59:24.527Z,44.99
2022-10-31T19:01:52.850Z,45.25
2022-10-31T19:04:22.398Z,45.04
2022-10-31T19:06:50.533Z,45.55
2022-10-31T19:09:18.507Z,45.79
2022-10-31T19:11:46.332Z,45.71
2022-10-31T19:14:14.960Z,45.75
2022-10-31T19:16:43.061Z,45.74
2022-10-31T19:19:10.975Z,45.59
2022-10-31T19:21:40.328Z,46.07
2022-10-31T19:24:09.742Z,46.24
2022-10-31T19:26:37.807Z,46.50
2022-10-31T19:29:06.004Z,46.42
2022-10-31T19:31:33.941Z,46.08
2022-10-31T19:34:01.892Z,45.76
2022-10-31T19:36:30.252Z,46.41
2022-10-31T19:38:59.493Z,46.31
2022-10-31T19:41:28.646Z,46.44
2022-10-31T19:43:57.157Z,46.31
2022-10-31T19:46:48.106Z,46.66
2022-10-31T19:49:13.206Z,47.14
2022-10-31T19:51:41.136Z,48.22
2022-10-31T19:54:11.340Z,47.63
2022-10-31T19:56:39.213Z,47.54
2022-10-31T19:59:07.117Z,47.51
2022-10-31T20:01:34.988Z,47.20
2022-10-31T20:04:02.867Z,47.52
2022-10-31T20:06:32.423Z,47.29
2022-10-31T20:09:02.279Z,47.97
2022-10-31T20:11:31.486Z,47.71
2022-10-31T20:14:00.473Z,47.98
2022-10-31T20:16:29.070Z,48.09
2022-10-31T20:18:59.531Z,47.82
2022-10-31T20:21:29.712Z,48.04
2022-10-31T20:23:58.098Z,48.32
2022-10-31T20:26:26.056Z,48.83
2022-10-31T20:28:56.216Z,48.81
2022-10-31T20:31:26.804Z,48.98
2022-10-31T20:33:55.733Z,49.12
2022-10-31T20:36:24.112Z,49.29
2022-10-31T20:38:53.294Z,49.53
2022-10-31T20:41:21.318Z,49.55
2022-10-31T20:43:49.272Z,49.48
2022-10-31T20:46:20.145Z,49.23
2022-10-31T20:48:48.578Z,49.86
2022-10-31T20:51:17.863Z,49.79
2022-10-31T20:53:45.930Z,49.64
2022-10-31T20:56:15.249Z,49.99
2022-10-31T20:58:44.294Z,50.39
2022-10-31T21:01:15.610Z,50.57
2022-10-31T21:03:45.755Z,50.41
2022-10-31T21:06:14.245Z,50.59
2022-10-31T21:08:43.323Z,50.85
2022-10-31T21:11:13.388Z,50.76
2022-10-31T21:13:42.640Z,50.72
2022-10-31T21:16:12.577Z,51.44
2022-10-31T21:18:42.299Z,51.07
2022-10-31T21:21:13.952Z,50.98
2022-10-31T21:23:42.973Z,51.25
2022-10-31T21:26:14.572Z,50.86
2022-10-31T21:28:42.569Z,50.36
2022-10-31T21:31:12.563Z,50.08
2022-10-31T21:33:41.070Z,50.14
2022-10-31T21:36:11.336Z,49.86
2022-10-31T21:38:39.591Z,49.32
2022-10-31T21:41:09.411Z,48.92
2022-10-31T21:43:38.086Z,49.24
2022-10-31T21:46:06.988Z,49.02
2022-10-31T21:48:35.245Z,48.60
2022-10-31T21:51:09.027Z,48.36
2022-10-31T21:53:56.885Z,48.29
2022-10-31T21:56:25.456Z,48.18
2022-10-31T21:58:53.946Z,48.04
2022-10-31T22:01:22.940Z,47.89
2022-10-31T22:03:50.956Z,47.25
2022-10-31T22:06:19.170Z,47.59
2022-10-31T22:08:48.668Z,47.17
2022-10-31T22:11:18.209Z,47.18
2022-10-31T22:13:47.178Z,47.15
2022-10-31T22:16:17.085Z,46.72
2022-10-31T22:18:45.435Z,47.11
2022-10-31T22:21:14.917Z,46.73
2022-10-31T22:23:43.356Z,46.81
2022-10-31T22:26:14.382Z,46.61
2022-10-31T22:28:43.609Z,46.64
2022-10-31T22:31:13.236Z,46.73
2022-10-31T22:33:41.343Z,46.74
2022-10-31T22:36:11.241Z,46.92
2022-10-31T22:38:40.439Z,46.87
2022-10-31T22:41:09.459Z,47.53
2022-10-31T22:43:39.238Z,47.63
2022-10-31T22:46:09.442Z,47.95
2022-10-31T22:48:39.228Z,48.10
2022-10-31T22:51:07.516Z,48.53
2022-10-31T22:53:36.307Z,48.74
2022-10-31T22:56:06.140Z,48.62
2022-10-31T22:58:34.999Z,48.54
2022-10-31T23:01:09.018Z,48.39
2022-10-31T23:03:37.322Z,48.19
2022-10-31T23:06:06.890Z,48.31
2022-10-31T23:08:37.013Z,48.25
2022-10-31T23:11:05.355Z,48.18
2022-10-31T23:13:51.074Z,48.29
2022-10-31T23:16:20.275Z,48.04
2022-10-31T23:18:50.570Z,48.21
2022-10-31T23:24:13.504Z,48.68
2022-10-31T23:26:59.103Z,48.84
2022-10-31T23:29:27.021Z,49.09
2022-10-31T23:31:55.449Z,48.81
2022-10-31T23:34:23.505Z,48.34
2022-10-31T23:36:51.517Z,48.41
2022-10-31T23:39:24.159Z,48.33
2022-10-31T23:41:53.390Z,48.39
2022-10-31T23:44:21.324Z,48.30
2022-10-31T23:46:49.390Z,48.45
2022-10-31T23:49:17.326Z,48.58
2022-10-31T23:51:45.208Z,48.77
2022-10-31T23:54:13.225Z,48.22
2022-10-31T23:56:45.011Z,48.19
2022-10-31T23:59:12.950Z,48.11
